Douglas, Illinois
Current Conditions -  °F | °C
As of 1:35 PM on Friday 31 Oct 2014 (Local Time) from K1H2 Reporting Station
Overcast Overcast  
Wind Chill: 32°   Ceiling: 3600
Heat Index: 42°   Visibility: 10mi
Dew Point: 26°   Wind: 21mph
Humidity: 55%   Direction: 320°NW
Pressure: 30.18"   Gusts: 32mph
Location:  39.1183°N, 88.6059°W
Report Text: K1H2 311835Z AUTO 32018G28KT 10SM OVC036 05/M03 A3018 RMK AO2 T00531031
Loading
Personal Weather Stations






























Interactive Weather Map
Tropical Storm Tracking
New forecast layout! Learn more

10-Day Weather Forecast

Advertisements
Track Severe Weather on mobile